createdAt,value
2023-03-11T00:00:02.454Z,97264.19
2023-03-11T00:02:31.940Z,97271.72
2023-03-11T00:05:02.467Z,97265.75
2023-03-11T00:07:29.053Z,97278.34
2023-03-11T00:09:55.493Z,97268.84
2023-03-11T00:12:22.170Z,97273.50
2023-03-11T00:14:48.619Z,97276.03
2023-03-11T00:17:15.083Z,97279.38
2023-03-11T00:19:41.523Z,97280.56
2023-03-11T00:22:08.331Z,97276.28
2023-03-11T00:24:34.924Z,97297.47
2023-03-11T00:27:01.406Z,97294.16
2023-03-11T00:29:27.909Z,97298.34
2023-03-11T00:31:54.700Z,97312.25
2023-03-11T00:34:22.980Z,97308.78
2023-03-11T00:36:51.778Z,97320.59
2023-03-11T00:39:18.327Z,97318.34
2023-03-11T00:41:44.848Z,97324.16
2023-03-11T00:44:12.564Z,97323.56
2023-03-11T00:46:41.280Z,97315.09
2023-03-11T00:49:07.810Z,97324.88
2023-03-11T00:51:34.781Z,97319.06
2023-03-11T00:54:01.363Z,97322.75
2023-03-11T00:56:27.994Z,97317.75
2023-03-11T00:59:12.135Z,97334.44
2023-03-11T01:01:38.869Z,97341.22
2023-03-11T01:04:05.550Z,97345.97
2023-03-11T01:06:44.524Z,97345.50
2023-03-11T01:09:11.804Z,97353.84
2023-03-11T01:11:38.262Z,97355.38
2023-03-11T01:14:04.714Z,97355.53
2023-03-11T01:16:31.257Z,97355.06
2023-03-11T01:18:57.683Z,97361.03
2023-03-11T01:21:24.216Z,97359.81
2023-03-11T01:23:50.675Z,97357.66
2023-03-11T01:26:17.152Z,97356.34
2023-03-11T01:28:43.791Z,97358.88
2023-03-11T01:31:10.860Z,97353.28
2023-03-11T01:33:37.367Z,97364.56
2023-03-11T01:36:04.203Z,97376.75
2023-03-11T01:38:30.672Z,97374.38
2023-03-11T01:40:57.149Z,97371.25
2023-03-11T01:43:44.763Z,97377.34
2023-03-11T01:46:36.003Z,97379.25
2023-03-11T01:49:04.274Z,97390.69
2023-03-11T01:51:39.017Z,97388.44
2023-03-11T01:54:10.683Z,97382.13
2023-03-11T01:56:39.216Z,97386.50
2023-03-11T01:59:08.121Z,97392.84
2023-03-11T02:01:38.565Z,97390.72
2023-03-11T02:04:05.040Z,97394.28
2023-03-11T02:06:32.545Z,97393.63
2023-03-11T02:09:01.115Z,97403.75
2023-03-11T02:11:30.657Z,97403.41
2023-03-11T02:14:01.657Z,97411.13
2023-03-11T02:16:28.253Z,97398.03
2023-03-11T02:18:54.759Z,97404.50
2023-03-11T02:21:23.769Z,97404.00
2023-03-11T02:24:01.868Z,97408.97
2023-03-11T02:26:41.214Z,97414.31
2023-03-11T02:29:11.310Z,97403.66
2023-03-11T02:31:42.892Z,97404.88
2023-03-11T02:34:18.766Z,97405.47
2023-03-11T02:36:45.646Z,97403.91
2023-03-11T02:39:12.219Z,97419.38
2023-03-11T02:41:41.693Z,97415.09
2023-03-11T02:44:11.766Z,97414.41
2023-03-11T02:46:41.377Z,97412.56
2023-03-11T02:49:09.382Z,97416.00
2023-03-11T02:51:35.790Z,97422.94
2023-03-11T02:54:05.545Z,97418.81
2023-03-11T02:56:32.583Z,97427.09
2023-03-11T02:58:59.295Z,97422.84
2023-03-11T03:01:25.907Z,97432.22
2023-03-11T03:03:52.496Z,97435.13
2023-03-11T03:06:19.001Z,97442.63
2023-03-11T03:08:45.493Z,97434.06
2023-03-11T03:11:11.997Z,97445.22
2023-03-11T03:13:38.577Z,97447.09
2023-03-11T03:16:05.386Z,97456.47
2023-03-11T03:18:31.962Z,97457.75
2023-03-11T03:20:58.526Z,97468.50
2023-03-11T03:23:25.093Z,97468.03
2023-03-11T03:25:51.861Z,97469.56
2023-03-11T03:28:19.012Z,97478.44
2023-03-11T03:30:45.702Z,97474.50
2023-03-11T03:33:12.592Z,97480.47
2023-03-11T03:35:44.822Z,97480.56
2023-03-11T03:38:11.953Z,97481.41
2023-03-11T03:40:38.801Z,97481.50
2023-03-11T03:43:05.721Z,97493.25
2023-03-11T03:45:32.223Z,97481.75
2023-03-11T03:47:58.933Z,97492.09
2023-03-11T03:50:25.411Z,97494.44
2023-03-11T03:52:51.879Z,97500.06
2023-03-11T03:55:18.428Z,97502.31
2023-03-11T03:57:45.109Z,97504.25
2023-03-11T04:00:12.029Z,97501.50
2023-03-11T04:02:38.517Z,97499.94
2023-03-11T04:05:05.548Z,97496.63
2023-03-11T04:07:34.673Z,97500.91
2023-03-11T04:10:01.182Z,97502.09
2023-03-11T04:12:27.682Z,97506.75
2023-03-11T04:14:54.174Z,97504.34
2023-03-11T04:17:20.639Z,97516.06
2023-03-11T04:19:47.047Z,97508.78
2023-03-11T04:22:13.769Z,97514.84
2023-03-11T04:24:40.257Z,97518.69
2023-03-11T04:27:06.817Z,97521.88
2023-03-11T04:29:33.236Z,97530.66
2023-03-11T04:31:59.647Z,97531.03
2023-03-11T04:34:26.099Z,97531.75
2023-03-11T04:36:54.076Z,97537.72
2023-03-11T04:39:21.034Z,97535.91
2023-03-11T04:41:47.440Z,97542.25
2023-03-11T04:44:13.942Z,97530.56
2023-03-11T04:46:40.342Z,97542.41
2023-03-11T04:49:06.855Z,97540.47
2023-03-11T04:51:33.339Z,97541.91
2023-03-11T04:53:59.956Z,97553.44
2023-03-11T04:56:26.487Z,97548.47
2023-03-11T04:58:52.898Z,97552.47
2023-03-11T05:01:19.757Z,97549.03
2023-03-11T05:03:46.379Z,97552.31
2023-03-11T05:06:13.005Z,97558.59
2023-03-11T05:08:40.524Z,97559.34
2023-03-11T05:11:07.608Z,97568.41
2023-03-11T05:13:34.110Z,97569.50
2023-03-11T05:16:00.551Z,97571.75
2023-03-11T05:18:27.037Z,97571.03
2023-03-11T05:20:53.487Z,97575.53
2023-03-11T05:23:19.935Z,97576.41
2023-03-11T05:25:46.640Z,97584.03
2023-03-11T05:28:13.068Z,97596.66
2023-03-11T05:30:39.478Z,97589.53
2023-03-11T05:33:05.957Z,97584.84
2023-03-11T05:35:32.346Z,97587.06
2023-03-11T05:37:58.738Z,97586.75
2023-03-11T05:40:25.176Z,97588.31
2023-03-11T05:42:52.013Z,97587.88
2023-03-11T05:45:18.404Z,97585.81
2023-03-11T05:47:45.110Z,97599.44
2023-03-11T05:50:12.528Z,97591.81
2023-03-11T05:52:38.994Z,97600.53
2023-03-11T05:58:00.772Z,97603.16
2023-03-11T06:00:29.471Z,97603.03
2023-03-11T06:02:55.976Z,97605.53
2023-03-11T06:05:22.437Z,97609.81
2023-03-11T06:07:48.975Z,97608.94
2023-03-11T06:10:15.502Z,97609.31
2023-03-11T06:12:41.912Z,97603.78
2023-03-11T06:15:09.170Z,97613.00
2023-03-11T06:17:35.626Z,97616.31
2023-03-11T06:20:02.137Z,97610.09
2023-03-11T06:22:28.638Z,97613.19
2023-03-11T06:24:55.099Z,97626.19
2023-03-11T06:27:21.555Z,97629.91
2023-03-11T06:29:52.253Z,97633.41
2023-03-11T06:32:18.801Z,97619.81
2023-03-11T06:34:45.288Z,97631.78
2023-03-11T06:37:11.666Z,97638.25
2023-03-11T06:39:38.110Z,97639.69
2023-03-11T06:42:04.760Z,97645.63
2023-03-11T06:44:31.162Z,97642.56
2023-03-11T06:46:57.621Z,97652.66
2023-03-11T06:49:24.109Z,97659.31
2023-03-11T06:51:50.728Z,97658.53
2023-03-11T06:54:17.265Z,97668.25
2023-03-11T06:56:43.805Z,97671.78
2023-03-11T06:59:10.593Z,97673.44
2023-03-11T07:01:37.221Z,97682.53
2023-03-11T07:04:03.882Z,97681.97
2023-03-11T07:06:30.556Z,97702.06
2023-03-11T07:08:57.134Z,97688.94
2023-03-11T07:11:26.293Z,97687.19
2023-03-11T07:13:54.277Z,97685.78
2023-03-11T07:16:23.233Z,97680.81
2023-03-11T07:18:50.593Z,97690.69
2023-03-11T07:21:20.105Z,97699.91
2023-03-11T07:23:49.176Z,97701.72
2023-03-11T07:26:17.918Z,97703.38
2023-03-11T07:28:47.988Z,97708.38
2023-03-11T07:31:17.971Z,97721.44
2023-03-11T07:33:45.510Z,97719.38
2023-03-11T07:36:14.741Z,97713.88
2023-03-11T07:38:41.942Z,97738.50
2023-03-11T07:41:11.058Z,97728.72
2023-03-11T07:43:37.923Z,97719.75
2023-03-11T07:46:14.074Z,97732.41
2023-03-11T07:48:40.840Z,97733.00
2023-03-11T07:51:11.944Z,97744.38
2023-03-11T07:53:40.538Z,97756.50
2023-03-11T07:56:08.806Z,97756.59
2023-03-11T07:58:35.655Z,97766.06
2023-03-11T08:01:10.814Z,97770.00
2023-03-11T08:03:38.282Z,97775.38
2023-03-11T08:06:26.590Z,97787.59
2023-03-11T08:08:53.439Z,97789.53
2023-03-11T08:11:23.256Z,97792.88
2023-03-11T08:13:50.634Z,97799.41
2023-03-11T08:16:19.992Z,97809.63
2023-03-11T08:18:47.528Z,97813.84
2023-03-11T08:21:16.949Z,97817.69
2023-03-11T08:23:44.033Z,97828.22
2023-03-11T08:26:16.695Z,97822.41
2023-03-11T08:28:43.977Z,97832.94
2023-03-11T08:31:18.208Z,97833.88
2023-03-11T08:33:47.212Z,97843.22
2023-03-11T08:36:13.837Z,97838.28
2023-03-11T08:38:40.461Z,97846.19
2023-03-11T08:41:06.942Z,97846.59
2023-03-11T08:43:33.750Z,97848.34
2023-03-11T08:46:01.478Z,97847.84
2023-03-11T08:48:28.801Z,97845.44
2023-03-11T08:50:56.192Z,97849.56
2023-03-11T08:53:23.405Z,97841.25
2023-03-11T08:55:51.717Z,97850.16
2023-03-11T08:58:19.289Z,97857.59
2023-03-11T09:00:46.166Z,97863.50
2023-03-11T09:03:13.496Z,97868.41
2023-03-11T09:05:40.175Z,97863.59
2023-03-11T09:08:06.979Z,97865.16
2023-03-11T09:10:33.552Z,97866.03
2023-03-11T09:12:59.984Z,97859.34
2023-03-11T09:15:26.573Z,97855.97
2023-03-11T09:17:53.921Z,97852.97
2023-03-11T09:20:20.608Z,97852.28
2023-03-11T09:22:47.437Z,97855.69
2023-03-11T09:25:14.370Z,97858.38
2023-03-11T09:27:41.401Z,97852.19
2023-03-11T09:30:09.451Z,97860.13
2023-03-11T09:32:35.930Z,97862.78
2023-03-11T09:35:02.579Z,97868.41
2023-03-11T09:37:30.247Z,97869.44
2023-03-11T09:39:56.827Z,97873.56
2023-03-11T09:42:46.256Z,97875.63
2023-03-11T09:45:19.458Z,97881.75
2023-03-11T09:48:09.263Z,97879.44
2023-03-11T09:50:46.379Z,97875.84
2023-03-11T09:53:18.894Z,97882.72
2023-03-11T09:55:45.295Z,97885.31
2023-03-11T09:58:17.002Z,97883.94
2023-03-11T10:00:44.030Z,97883.13
2023-03-11T10:03:25.771Z,97878.66
2023-03-11T10:05:58.483Z,97884.19
2023-03-11T10:08:33.250Z,97880.44
2023-03-11T10:11:32.933Z,97875.16
2023-03-11T10:14:27.453Z,97866.59
2023-03-11T10:17:08.097Z,97875.66
2023-03-11T10:19:54.717Z,97885.47
2023-03-11T10:22:39.775Z,97882.94
2023-03-11T10:25:24.340Z,97881.00
2023-03-11T10:28:06.576Z,97872.38
2023-03-11T10:30:58.244Z,97872.91
2023-03-11T10:33:46.586Z,97881.13
2023-03-11T10:36:19.683Z,97882.06
2023-03-11T10:38:50.216Z,97879.41
2023-03-11T10:41:44.318Z,97876.91
2023-03-11T10:44:19.173Z,97883.84
2023-03-11T10:46:45.612Z,97884.56
2023-03-11T10:49:17.590Z,97887.22
2023-03-11T10:51:50.462Z,97892.63
2023-03-11T10:54:29.817Z,97887.50
2023-03-11T10:57:03.880Z,97885.97
2023-03-11T10:59:34.397Z,97895.56
2023-03-11T11:02:20.017Z,97895.13
2023-03-11T11:04:46.633Z,97910.94
2023-03-11T11:07:29.890Z,97907.31
2023-03-11T11:10:11.642Z,97903.72
2023-03-11T11:12:50.325Z,97914.41
2023-03-11T11:15:29.412Z,97922.16
2023-03-11T11:17:58.970Z,97911.72
2023-03-11T11:20:27.450Z,97892.66
2023-03-11T11:22:59.237Z,97896.84
2023-03-11T11:25:30.429Z,97902.91
2023-03-11T11:28:00.587Z,97900.72
2023-03-11T11:30:28.940Z,97896.56
2023-03-11T11:32:55.792Z,97899.59
2023-03-11T11:35:25.472Z,97890.16
2023-03-11T11:37:55.683Z,97901.84
2023-03-11T11:40:31.007Z,97913.38
2023-03-11T11:43:03.554Z,97911.28
2023-03-11T11:45:37.772Z,97918.81
2023-03-11T11:48:20.247Z,97913.66
2023-03-11T11:50:52.624Z,97916.06
2023-03-11T11:53:51.265Z,97921.69
2023-03-11T11:56:17.904Z,97919.75
2023-03-11T11:58:44.406Z,97904.38
2023-03-11T12:01:15.408Z,97908.00
2023-03-11T12:04:05.181Z,97896.16
2023-03-11T12:06:40.070Z,97913.13
2023-03-11T12:09:24.143Z,97908.22
2023-03-11T12:12:01.342Z,97906.34
2023-03-11T12:14:43.180Z,97905.16
2023-03-11T12:17:13.882Z,97900.06
2023-03-11T12:19:58.197Z,97896.53
2023-03-11T12:22:51.068Z,97890.53
2023-03-11T12:25:30.144Z,97897.78
2023-03-11T12:28:14.770Z,97899.69
2023-03-11T12:30:46.319Z,97890.56
2023-03-11T12:33:18.837Z,97894.31
2023-03-11T12:35:58.157Z,97901.22
2023-03-11T12:38:27.646Z,97901.22
2023-03-11T12:41:23.040Z,97896.06
2023-03-11T12:43:52.425Z,97892.00
2023-03-11T12:46:19.454Z,97887.75
2023-03-11T12:49:07.737Z,97884.06
2023-03-11T12:51:39.185Z,97883.97
2023-03-11T12:54:32.187Z,97891.19
2023-03-11T12:57:03.524Z,97900.44
2023-03-11T12:59:57.393Z,97907.28
2023-03-11T13:02:47.785Z,97909.50
2023-03-11T13:05:33.115Z,97913.66
2023-03-11T13:08:21.778Z,97906.53
2023-03-11T13:10:56.326Z,97911.25
2023-03-11T13:13:39.466Z,97903.72
2023-03-11T13:16:14.922Z,97909.25
2023-03-11T13:18:46.516Z,97912.63
2023-03-11T13:21:28.388Z,97914.44
2023-03-11T13:24:21.410Z,97912.50
2023-03-11T13:27:00.575Z,97918.56
2023-03-11T13:29:31.348Z,97924.81
2023-03-11T13:32:28.233Z,97922.34
2023-03-11T13:35:10.216Z,97918.66
2023-03-11T13:37:50.986Z,97924.88
2023-03-11T13:40:36.486Z,97934.41
2023-03-11T13:43:05.654Z,97942.31
2023-03-11T13:45:35.638Z,97944.28
2023-03-11T13:48:16.481Z,97944.06
2023-03-11T13:50:51.051Z,97940.72
2023-03-11T13:53:31.079Z,97935.88
2023-03-11T13:55:57.738Z,97937.94
2023-03-11T13:58:26.872Z,97939.91
2023-03-11T14:00:58.804Z,97938.63
2023-03-11T14:03:28.295Z,97956.06
2023-03-11T14:06:08.088Z,97951.59
2023-03-11T14:08:38.709Z,97955.19
2023-03-11T14:11:08.233Z,97955.78
2023-03-11T14:13:49.799Z,97949.06
2023-03-11T14:16:18.851Z,97945.56
2023-03-11T14:18:48.411Z,97938.03
2023-03-11T14:21:18.290Z,97935.69
2023-03-11T14:23:48.234Z,97934.72
2023-03-11T14:26:20.322Z,97932.44
2023-03-11T14:28:51.009Z,97930.75
2023-03-11T14:31:38.696Z,97928.38
2023-03-11T14:34:15.247Z,97929.53
2023-03-11T14:36:42.329Z,97925.72
2023-03-11T14:39:30.041Z,97925.88
2023-03-11T14:42:08.138Z,97927.94
2023-03-11T14:44:40.980Z,97927.81
2023-03-11T14:47:26.947Z,97929.41
2023-03-11T14:49:54.581Z,97929.09
2023-03-11T14:52:32.601Z,97925.81
2023-03-11T14:55:00.794Z,97928.03
2023-03-11T14:57:39.916Z,97938.72
2023-03-11T15:00:15.900Z,97938.66
2023-03-11T15:03:00.970Z,97949.22
2023-03-11T15:05:46.159Z,97935.44
2023-03-11T15:08:12.898Z,97938.50
2023-03-11T15:10:39.526Z,97941.41
2023-03-11T15:13:14.859Z,97943.72
2023-03-11T15:15:41.981Z,97943.09
2023-03-11T15:18:22.342Z,97939.91
2023-03-11T15:21:05.775Z,97936.09
2023-03-11T15:23:35.130Z,97946.25
2023-03-11T15:26:01.938Z,97954.31
2023-03-11T15:28:33.615Z,97961.19
2023-03-11T15:31:31.334Z,97949.78
2023-03-11T15:34:19.279Z,97938.38
2023-03-11T15:36:48.487Z,97945.72
2023-03-11T15:39:31.224Z,97957.16
2023-03-11T15:42:02.290Z,97952.84
2023-03-11T15:44:42.282Z,97964.09
2023-03-11T15:47:15.063Z,97959.91
2023-03-11T15:49:42.292Z,97968.28
2023-03-11T15:52:09.290Z,97972.16
2023-03-11T15:54:36.293Z,97985.31
2023-03-11T15:57:06.903Z,97985.88
2023-03-11T15:59:34.765Z,97984.47
2023-03-11T16:02:01.261Z,97984.03
2023-03-11T16:04:27.819Z,97979.59
2023-03-11T16:07:07.139Z,97977.56
2023-03-11T16:09:34.534Z,97977.78
2023-03-11T16:12:02.047Z,97975.66
2023-03-11T16:14:28.551Z,97979.66
2023-03-11T16:16:55.061Z,97984.38
2023-03-11T16:19:21.539Z,97984.03
2023-03-11T16:21:50.184Z,97981.75
2023-03-11T16:24:20.903Z,97986.31
2023-03-11T16:26:47.577Z,97977.72
2023-03-11T16:29:19.484Z,97986.47
2023-03-11T16:31:46.645Z,97983.97
2023-03-11T16:34:13.242Z,97990.25
2023-03-11T16:36:42.225Z,97995.81
2023-03-11T16:39:09.291Z,97986.25
2023-03-11T16:41:45.304Z,97989.94
2023-03-11T16:44:11.963Z,97986.72
2023-03-11T16:46:38.765Z,97987.81
2023-03-11T16:49:05.706Z,97988.41
2023-03-11T16:51:32.536Z,97993.19
2023-03-11T16:53:59.283Z,97992.78
2023-03-11T16:56:25.816Z,97992.94
2023-03-11T16:58:52.261Z,98000.34
2023-03-11T17:01:19.204Z,98005.75
2023-03-11T17:03:48.537Z,98008.63
2023-03-11T17:06:15.722Z,98011.97
2023-03-11T17:08:42.352Z,98012.09
2023-03-11T17:11:16.744Z,98014.47
2023-03-11T17:13:43.741Z,98020.22
2023-03-11T17:16:10.241Z,98013.28
2023-03-11T17:18:36.742Z,98021.88
2023-03-11T17:21:09.166Z,98016.97
2023-03-11T17:23:35.702Z,98024.84
2023-03-11T17:26:02.604Z,98021.78
2023-03-11T17:28:29.582Z,98029.56
2023-03-11T17:30:56.056Z,98033.94
2023-03-11T17:33:22.460Z,98029.56
2023-03-11T17:35:48.873Z,98037.78
2023-03-11T17:38:16.601Z,98042.09
2023-03-11T17:40:43.310Z,98045.47
2023-03-11T17:43:09.862Z,98044.28
2023-03-11T17:45:38.616Z,98040.19
2023-03-11T17:48:05.208Z,98045.28
2023-03-11T17:50:31.620Z,98048.53
2023-03-11T17:52:58.210Z,98053.38
2023-03-11T17:55:24.846Z,98057.06
2023-03-11T17:57:52.389Z,98063.69
2023-03-11T18:00:19.263Z,98060.28
2023-03-11T18:02:45.731Z,98068.56
2023-03-11T18:05:12.209Z,98071.78
2023-03-11T18:07:41.603Z,98072.66
2023-03-11T18:10:09.238Z,98080.53
2023-03-11T18:12:36.075Z,98081.34
2023-03-11T18:15:06.024Z,98088.31
2023-03-11T18:17:34.888Z,98083.25
2023-03-11T18:20:01.729Z,98101.16
2023-03-11T18:22:28.193Z,98098.28
2023-03-11T18:24:54.807Z,98102.72
2023-03-11T18:27:21.274Z,98099.00
2023-03-11T18:29:47.707Z,98097.81
2023-03-11T18:32:14.227Z,98100.78
2023-03-11T18:34:41.677Z,98095.84
2023-03-11T18:37:08.457Z,98098.00
2023-03-11T18:39:35.314Z,98105.59
2023-03-11T18:42:02.884Z,98102.63
2023-03-11T18:44:29.375Z,98099.03
2023-03-11T18:46:55.910Z,98108.50
2023-03-11T18:49:22.340Z,98106.06
2023-03-11T18:51:48.777Z,98102.13
2023-03-11T18:54:15.209Z,98102.50
2023-03-11T18:56:41.695Z,98105.13
2023-03-11T18:59:12.050Z,98093.63
2023-03-11T19:01:38.702Z,98096.50
2023-03-11T19:04:05.327Z,98104.97
2023-03-11T19:06:31.885Z,98093.00
2023-03-11T19:08:58.526Z,98098.00
2023-03-11T19:11:25.254Z,98097.56
2023-03-11T19:13:52.780Z,98102.53
2023-03-11T19:16:23.150Z,98106.44
2023-03-11T19:18:50.333Z,98103.53
2023-03-11T19:21:17.459Z,98102.13
2023-03-11T19:23:44.743Z,98113.84
2023-03-11T19:26:11.879Z,98107.41
2023-03-11T19:28:38.473Z,98110.28
2023-03-11T19:31:05.669Z,98112.72
2023-03-11T19:33:32.552Z,98117.59
2023-03-11T19:36:01.064Z,98113.34
2023-03-11T19:38:28.818Z,98109.75
2023-03-11T19:41:07.095Z,98110.66
2023-03-11T19:43:35.612Z,98107.16
2023-03-11T19:46:03.741Z,98110.66
2023-03-11T19:48:30.606Z,98113.06
2023-03-11T19:50:58.551Z,98121.31
2023-03-11T19:53:26.437Z,98123.34
2023-03-11T19:55:55.623Z,98124.22
2023-03-11T19:58:23.864Z,98130.63
2023-03-11T20:00:51.418Z,98129.00
2023-03-11T20:03:19.518Z,98134.94
2023-03-11T20:05:47.288Z,98134.34
2023-03-11T20:08:16.864Z,98133.50
2023-03-11T20:10:46.361Z,98130.19
2023-03-11T20:13:14.771Z,98138.47
2023-03-11T20:15:41.442Z,98138.13
2023-03-11T20:18:08.075Z,98136.72
2023-03-11T20:20:37.447Z,98151.69
2023-03-11T20:23:04.059Z,98151.94
2023-03-11T20:25:34.754Z,98158.84
2023-03-11T20:28:01.558Z,98152.78
2023-03-11T20:30:28.721Z,98152.78
2023-03-11T20:32:55.538Z,98144.28
2023-03-11T20:35:22.799Z,98141.56
2023-03-11T20:37:49.306Z,98145.22
2023-03-11T20:40:17.104Z,98158.69
2023-03-11T20:42:46.793Z,98149.25
2023-03-11T20:45:21.622Z,98158.50
2023-03-11T20:47:49.919Z,98161.31
2023-03-11T20:50:16.802Z,98153.09
2023-03-11T20:52:43.478Z,98159.16
2023-03-11T20:55:10.836Z,98168.63
2023-03-11T20:57:38.676Z,98162.75
2023-03-11T21:00:11.422Z,98160.66
2023-03-11T21:02:44.700Z,98154.59
2023-03-11T21:05:12.510Z,98156.50
2023-03-11T21:07:39.696Z,98159.44
2023-03-11T21:10:09.808Z,98152.63
2023-03-11T21:12:36.366Z,98156.78
2023-03-11T21:15:07.216Z,98163.19
2023-03-11T21:17:37.117Z,98170.44
2023-03-11T21:20:09.215Z,98165.69
2023-03-11T21:22:36.167Z,98173.53
2023-03-11T21:25:08.506Z,98165.00
2023-03-11T21:27:35.275Z,98156.31
2023-03-11T21:30:05.080Z,98163.84
2023-03-11T21:32:31.933Z,98166.09
2023-03-11T21:34:59.861Z,98173.06
2023-03-11T21:37:27.834Z,98167.16
2023-03-11T21:39:57.820Z,98162.47
2023-03-11T21:45:08.358Z,98167.88
2023-03-11T21:47:37.914Z,98166.41
2023-03-11T21:50:05.338Z,98161.00
2023-03-11T21:52:31.795Z,98152.25
2023-03-11T21:55:02.992Z,98160.19
2023-03-11T21:57:29.567Z,98165.94
2023-03-11T22:00:07.644Z,98161.34
2023-03-11T22:02:40.134Z,98156.81
2023-03-11T22:05:14.130Z,98159.59
2023-03-11T22:07:40.637Z,98160.13
2023-03-11T22:10:08.326Z,98162.81
2023-03-11T22:12:34.822Z,98161.63
2023-03-11T22:15:04.067Z,98161.09
2023-03-11T22:17:30.674Z,98163.25
2023-03-11T22:19:59.879Z,98171.31
2023-03-11T22:22:26.492Z,98172.75
2023-03-11T22:24:55.409Z,98164.72
2023-03-11T22:27:21.873Z,98163.19
2023-03-11T22:29:51.466Z,98168.78
2023-03-11T22:32:17.993Z,98173.25
2023-03-11T22:34:44.632Z,98171.69
2023-03-11T22:37:16.653Z,98164.00
2023-03-11T22:39:45.601Z,98166.63
2023-03-11T22:42:12.246Z,98175.81
2023-03-11T22:44:41.847Z,98166.16
2023-03-11T22:47:10.386Z,98165.53
2023-03-11T22:49:38.453Z,98166.31
2023-03-11T22:52:05.232Z,98161.22
2023-03-11T22:54:31.757Z,98168.81
2023-03-11T22:56:58.241Z,98167.75
2023-03-11T22:59:30.724Z,98171.59
2023-03-11T23:01:57.603Z,98174.19
2023-03-11T23:04:26.696Z,98165.94
2023-03-11T23:06:57.983Z,98164.78
2023-03-11T23:09:24.451Z,98168.88
2023-03-11T23:11:52.635Z,98160.88
2023-03-11T23:14:22.003Z,98173.53
2023-03-11T23:16:52.185Z,98185.03
2023-03-11T23:19:18.677Z,98174.22
2023-03-11T23:21:45.149Z,98169.75
2023-03-11T23:24:11.703Z,98174.63
2023-03-11T23:26:38.235Z,98170.53
2023-03-11T23:29:05.181Z,98170.69
2023-03-11T23:31:31.942Z,98162.25
2023-03-11T23:33:58.845Z,98168.38
2023-03-11T23:36:30.823Z,98169.53
2023-03-11T23:38:57.658Z,98173.31
2023-03-11T23:41:24.141Z,98177.34
2023-03-11T23:43:51.025Z,98170.25
2023-03-11T23:46:17.702Z,98171.00
2023-03-11T23:48:44.255Z,98178.53
2023-03-11T23:51:11.038Z,98183.72
2023-03-11T23:53:40.690Z,98182.25
2023-03-11T23:56:18.851Z,98172.28
2023-03-11T23:58:46.479Z,98171.22
